ADDS METAR Data INFO
IDs: Format: Raw Decoded Include TAF

Data at: 1230 UTC 20 Jul 2017

METAR for:KLRD (Laredo Intl Apt, TX, US)
Text:KLRD 201056Z 14007KT 10SM CLR 26/22 A3006 RMK AO2 SLP176 T02610217 $
Temperature: 26.1°C ( 79°F)
Dewpoint: 21.7°C ( 71°F) [RH = 77%]
Pressure (altimeter):30.06 inches Hg (1018.0 mb) [Sea level pressure: 1017.6 mb]
Winds:from the SE (140 degrees) at 8 MPH (7 knots; 3.6 m/s)
Visibility:10 or more sm (16+ km)
Ceiling:at least 12,000 feet AGL
Clouds:sky clear below 12,000 feet AGL
QC Flag:SOME DATA ABOVE MAY BE INACCURATE!!!"$" is an indication the sensor requires maintenance.